Time;durP1;ratioP1;P1;durP2;ratioP2;P2;SDS_P1;SDS_P2;PMS_P1;PMS_P2;Temp;Humidity;BMP_temperature;BMP_pressure;BME280_temperature;BME280_humidity;BME280_pressure;Samples;Min_cycle;Max_cycle;Signal;HPM_P1;HPM_P2
2022/11/14 00:01:14;;;;;;;12.73;8.85;;;26.70;93.00;;;;;;1847229;77;21208;-91
2022/11/14 00:03:46;;;;;;;15.75;10.68;;;26.70;93.00;;;;;;1893957;75;21188;-91
2022/11/14 00:06:18;;;;;;;23.35;15.50;;;26.70;93.00;;;;;;1886080;75;21187;-90
2022/11/14 00:08:49;;;;;;;19.95;13.70;;;26.70;93.10;;;;;;1911479;73;21104;-91
2022/11/14 00:11:20;;;;;;;11.30;7.40;;;26.70;93.20;;;;;;1944370;72;21245;-90
2022/11/14 00:14:08;;;;;;;15.80;10.35;;;26.70;93.00;;;;;;1961566;73;21067;-92
2022/11/14 00:16:49;;;;;;;17.80;9.38;;;26.70;93.10;;;;;;1947673;72;21115;-90
2022/11/14 00:19:20;;;;;;;12.25;7.62;;;26.80;92.90;;;;;;1886311;74;21092;-91
2022/11/14 00:21:59;;;;;;;9.20;6.40;;;26.80;92.80;;;;;;1890317;74;21132;-91
2022/11/14 00:24:30;;;;;;;15.68;8.23;;;26.90;92.70;;;;;;1935255;73;21025;-90
2022/11/14 00:27:02;;;;;;;11.83;6.58;;;27.00;92.60;;;;;;1938040;73;21130;-91
2022/11/14 00:29:33;;;;;;;14.70;7.78;;;27.00;92.50;;;;;;1943414;73;21163;-89
2022/11/14 00:32:04;;;;;;;12.98;7.97;;;27.00;92.50;;;;;;1931958;73;21044;-90
2022/11/14 00:34:35;;;;;;;10.68;7.40;;;27.00;92.50;;;;;;1896342;75;21224;-90
2022/11/14 00:37:06;;;;;;;13.05;7.55;;;27.00;92.40;;;;;;1886548;74;21215;-91
2022/11/14 00:39:39;;;;;;;14.98;6.72;;;27.00;92.40;;;;;;1875978;75;21106;-91
2022/11/14 00:42:09;;;;;;;10.72;5.95;;;27.00;92.30;;;;;;1871838;75;21116;-90
2022/11/14 00:44:43;;;;;;;11.08;5.97;;;27.00;92.10;;;;;;1872262;75;21177;-91
2022/11/14 00:47:15;;;;;;;10.20;6.53;;;27.10;92.10;;;;;;1929803;73;21051;-92
2022/11/14 00:49:52;;;;;;;11.70;6.77;;;27.00;92.10;;;;;;1860965;77;21170;-91
2022/11/14 00:52:26;;;;;;;;;;;27.10;92.10;;;;;;1899183;75;21202;-91
2022/11/14 00:54:57;;;;;;;10.88;7.28;;;27.10;92.00;;;;;;1915038;74;20182;-90
2022/11/14 00:57:49;;;;;;;8.80;6.15;;;27.20;92.00;;;;;;1899884;74;21163;-94
2022/11/14 01:00:18;;;;;;;9.03;5.50;;;27.20;91.80;;;;;;1869032;75;21097;-91
2022/11/14 01:02:55;;;;;;;8.68;5.53;;;27.30;91.40;;;;;;1906046;73;21239;-90
2022/11/14 01:05:25;;;;;;;10.85;5.45;;;27.30;91.20;;;;;;1847496;77;21076;-90
2022/11/14 01:07:56;;;;;;;11.73;5.90;;;27.30;91.20;;;;;;1862184;77;21223;-91
2022/11/14 01:10:29;;;;;;;13.65;9.10;;;27.40;91.20;;;;;;1890554;72;21252;-92
2022/11/14 01:13:00;;;;;;;10.65;6.58;;;27.40;91.10;;;;;;1975658;71;21054;-88
2022/11/14 01:15:31;;;;;;;8.10;5.62;;;27.40;91.10;;;;;;1947110;71;21212;-79
2022/11/14 01:18:02;;;;;;;6.50;4.90;;;27.50;91.00;;;;;;1981581;71;21644;-78
2022/11/14 01:20:34;;;;;;;6.87;4.72;;;27.50;90.60;;;;;;1971957;71;21140;-79
2022/11/14 01:23:06;;;;;;;9.33;5.87;;;27.50;90.70;;;;;;1947547;73;21138;-79
2022/11/14 01:25:41;;;;;;;9.65;6.30;;;27.50;90.80;;;;;;1973962;70;21131;-79
2022/11/14 01:28:21;;;;;;;12.45;7.05;;;27.50;90.80;;;;;;1979437;70;21058;-79
2022/11/14 01:30:57;;;;;;;9.28;5.90;;;27.50;90.90;;;;;;1981602;71;21152;-78
2022/11/14 01:33:28;;;;;;;12.47;7.08;;;27.50;90.50;;;;;;1927688;73;21087;-78
2022/11/14 01:36:18;;;;;;;9.80;5.35;;;27.50;90.40;;;;;;1912250;73;21218;-79
2022/11/14 01:38:54;;;;;;;8.73;5.28;;;27.60;90.20;;;;;;1880258;75;21850;-76
2022/11/14 01:41:28;;;;;;;8.33;5.53;;;27.60;89.90;;;;;;1935113;73;21099;-78
2022/11/14 01:43:59;;;;;;;8.48;5.67;;;27.60;90.00;;;;;;1942325;73;21100;-79
2022/11/14 01:46:33;;;;;;;6.25;4.33;;;27.70;90.20;;;;;;1952562;73;21078;-77
2022/11/14 01:49:15;;;;;;;8.45;4.70;;;27.70;90.00;;;;;;1941911;73;21175;-79
2022/11/14 01:51:52;;;;;;;8.00;4.85;;;27.80;90.00;;;;;;1936150;73;21210;-78
2022/11/14 01:54:28;;;;;;;9.15;5.60;;;27.80;89.80;;;;;;1926277;72;21175;-78
2022/11/14 01:56:59;;;;;;;;;;;27.90;89.70;;;;;;1935253;73;21955;-77
2022/11/14 01:59:33;;;;;;;8.23;4.30;;;28.00;89.20;;;;;;1936510;73;20196;-77
2022/11/14 02:02:06;;;;;;;11.90;5.42;;;28.00;89.30;;;;;;1945982;73;21053;-77
2022/11/14 02:04:40;;;;;;;9.93;4.60;;;28.00;89.70;;;;;;1941756;73;21062;-77
2022/11/14 02:07:13;;;;;;;7.67;5.30;;;28.00;88.50;;;;;;1957344;72;21109;-78
2022/11/14 02:09:46;;;;;;;7.42;5.08;;;28.00;88.80;;;;;;1938635;73;21242;-79
2022/11/14 02:12:19;;;;;;;8.13;4.70;;;28.00;88.60;;;;;;1928269;73;21046;-79
2022/11/14 02:14:52;;;;;;;6.67;4.65;;;28.00;88.70;;;;;;1934798;73;21071;-78
2022/11/14 02:17:24;;;;;;;7.65;4.67;;;27.90;89.10;;;;;;1947941;72;21153;-80
2022/11/14 02:20:04;;;;;;;6.92;4.67;;;27.90;89.00;;;;;;1926694;73;21105;-78
2022/11/14 02:22:35;;;;;;;7.22;4.90;;;28.00;89.30;;;;;;1947752;72;21153;-79
2022/11/14 02:25:07;;;;;;;7.83;5.33;;;28.00;89.50;;;;;;1937970;72;21216;-78
2022/11/14 02:27:40;;;;;;;8.78;5.37;;;28.00;89.20;;;;;;1925167;73;21056;-78
2022/11/14 02:30:14;;;;;;;8.48;5.00;;;28.10;89.30;;;;;;1927760;73;21025;-78
2022/11/14 02:32:45;;;;;;;7.37;4.53;;;28.10;89.00;;;;;;1940038;72;21135;-78
2022/11/14 02:35:18;;;;;;;7.37;5.30;;;28.10;89.00;;;;;;1933932;72;21608;-79
2022/11/14 02:37:49;;;;;;;6.62;4.95;;;28.10;89.20;;;;;;1926055;73;21177;-76
2022/11/14 02:40:20;;;;;;;7.00;5.08;;;28.10;89.90;;;;;;1929592;73;21557;-78
2022/11/14 02:42:51;;;;;;;13.03;4.72;;;28.10;89.30;;;;;;1925653;73;21172;-76
2022/11/14 02:45:22;;;;;;;8.88;4.83;;;28.10;89.20;;;;;;1926729;73;21638;-77
2022/11/14 02:47:52;;;;;;;10.60;6.05;;;28.20;89.50;;;;;;1935770;73;21273;-77
2022/11/14 02:50:23;;;;;;;7.67;5.33;;;28.30;89.70;;;;;;1937645;73;21141;-77
2022/11/14 02:52:55;;;;;;;7.62;4.80;;;28.30;89.30;;;;;;1923448;73;21160;-79
2022/11/14 02:55:26;;;;;;;7.80;4.65;;;28.40;89.40;;;;;;1925083;73;21619;-77
2022/11/14 02:57:57;;;;;;;7.95;5.53;;;28.40;89.40;;;;;;1925164;73;21214;-79
2022/11/14 03:00:47;;;;;;;7.22;4.45;;;28.50;90.10;;;;;;1964899;71;21223;-79
2022/11/14 03:03:20;;;;;;;6.70;4.08;;;28.50;89.00;;;;;;1962239;72;21228;-78
2022/11/14 03:05:52;;;;;;;6.05;3.90;;;28.60;88.80;;;;;;1971114;72;21621;-79
2022/11/14 03:08:23;;;;;;;7.12;4.67;;;28.60;88.20;;;;;;1966236;72;21559;-76
2022/11/14 03:10:54;;;;;;;7.08;4.20;;;28.80;88.10;;;;;;1978656;72;21087;-79
2022/11/14 03:13:27;;;;;;;10.35;4.78;;;28.80;87.80;;;;;;1973423;71;21106;-76
2022/11/14 03:15:58;;;;;;;6.05;3.90;;;28.90;87.50;;;;;;1960133;71;21640;-78
2022/11/14 03:18:29;;;;;;;13.83;4.35;;;28.90;87.20;;;;;;1965186;72;21115;-77
2022/11/14 03:21:08;;;;;;;8.65;4.70;;;29.00;87.30;;;;;;1967626;72;21099;-79
2022/11/14 03:23:40;;;;;;;6.67;4.42;;;29.10;87.50;;;;;;1958975;72;21100;-78
2022/11/14 03:26:13;;;;;;;7.20;4.47;;;29.20;87.00;;;;;;1969170;72;21210;-79
2022/11/14 03:28:44;;;;;;;5.22;3.58;;;29.20;86.60;;;;;;1973062;72;21131;-80
2022/11/14 03:31:15;;;;;;;5.78;3.17;;;29.30;85.70;;;;;;1973974;72;21103;-79
2022/11/14 03:33:46;;;;;;;6.22;3.55;;;29.30;85.20;;;;;;1977888;72;21113;-80
2022/11/14 03:36:20;;;;;;;7.35;3.42;;;29.40;84.60;;;;;;1981277;72;21145;-77
2022/11/14 03:38:51;;;;;;;4.75;3.70;;;29.40;84.40;;;;;;1970674;72;21217;-80
2022/11/14 03:41:27;;;;;;;4.33;3.10;;;29.40;84.70;;;;;;1973123;72;21566;-78
2022/11/14 03:43:58;;;;;;;5.90;3.02;;;29.50;84.20;;;;;;1968560;72;21091;-79
2022/11/14 03:46:30;;;;;;;7.03;3.15;;;29.60;83.90;;;;;;1976940;72;21567;-77
2022/11/14 03:49:01;;;;;;;4.83;2.90;;;29.70;83.40;;;;;;1985430;72;21103;-80
2022/11/14 03:51:33;;;;;;;5.42;3.27;;;29.80;83.30;;;;;;1977076;72;21155;-81
2022/11/14 03:54:04;;;;;;;6.92;3.08;;;29.80;82.50;;;;;;1977319;72;21197;-81
2022/11/14 03:56:35;;;;;;;6.50;2.98;;;29.80;82.20;;;;;;1976164;72;21088;-82
2022/11/14 03:59:08;;;;;;;12.47;4.08;;;29.90;82.20;;;;;;1967471;72;21564;-80
2022/11/14 04:01:44;;;;;;;5.97;3.20;;;30.00;82.10;;;;;;1963831;72;21088;-81
2022/11/14 04:04:20;;;;;;;6.00;3.15;;;30.10;81.70;;;;;;1965658;72;21228;-82
2022/11/14 04:06:54;;;;;;;4.35;2.45;;;30.10;81.70;;;;;;1969209;72;21056;-79
2022/11/14 04:09:25;;;;;;;5.37;2.72;;;30.10;81.00;;;;;;1974914;72;21122;-84
2022/11/14 04:11:58;;;;;;;7.10;2.67;;;30.20;80.80;;;;;;1962965;72;21189;-83
2022/11/14 04:14:29;;;;;;;6.08;2.98;;;30.20;80.60;;;;;;1955031;72;21153;-80
2022/11/14 04:17:00;;;;;;;4.70;2.87;;;30.20;81.90;;;;;;1956200;72;21142;-83
2022/11/14 04:19:31;;;;;;;5.87;3.10;;;30.20;80.30;;;;;;1964574;72;21131;-81
2022/11/14 04:22:02;;;;;;;3.55;2.60;;;30.30;80.50;;;;;;1921637;74;21056;-82
2022/11/14 04:24:33;;;;;;;3.55;2.33;;;30.30;80.40;;;;;;1884898;75;21206;-79
2022/11/14 04:27:04;;;;;;;4.12;2.70;;;30.30;80.60;;;;;;1920086;74;21124;-80
2022/11/14 04:29:35;;;;;;;5.37;2.75;;;30.40;81.00;;;;;;1902511;74;21092;-80
2022/11/14 04:32:07;;;;;;;4.90;2.95;;;30.40;80.80;;;;;;1967086;72;22127;-81
2022/11/14 04:34:39;;;;;;;6.05;3.22;;;30.40;81.00;;;;;;1966111;72;21686;-82
2022/11/14 04:37:11;;;;;;;3.17;2.37;;;30.40;80.90;;;;;;1968934;72;21059;-80
2022/11/14 04:39:42;;;;;;;5.05;2.80;;;30.40;80.90;;;;;;1919540;74;21198;-79
2022/11/14 04:42:14;;;;;;;6.10;2.80;;;30.30;80.90;;;;;;1925237;74;21115;-82
2022/11/14 04:44:46;;;;;;;6.03;3.45;;;30.30;81.30;;;;;;1913777;74;21147;-81
2022/11/14 04:47:17;;;;;;;6.75;3.50;;;30.30;81.40;;;;;;1923426;74;21532;-80
2022/11/14 04:49:48;;;;;;;6.30;3.17;;;30.40;81.10;;;;;;1926438;74;21084;-83
2022/11/14 04:52:19;;;;;;;8.90;2.92;;;30.40;81.30;;;;;;1887422;75;21069;-81
2022/11/14 04:54:52;;;;;;;4.87;2.90;;;30.50;81.10;;;;;;1918132;73;21181;-81
2022/11/14 04:57:23;;;;;;;5.05;3.22;;;30.70;80.60;;;;;;1940568;73;21131;-79
2022/11/14 04:59:54;;;;;;;5.17;3.17;;;30.80;80.50;;;;;;1962338;72;21269;-82
2022/11/14 05:02:31;;;;;;;4.83;2.58;;;30.80;80.10;;;;;;1950621;72;21132;-82
2022/11/14 05:05:03;;;;;;;7.05;3.37;;;30.90;79.60;;;;;;1959701;72;21395;-80
2022/11/14 05:07:35;;;;;;;6.87;3.95;;;30.90;79.40;;;;;;1926166;73;21308;-81
2022/11/14 05:10:10;;;;;;;6.10;2.92;;;31.00;79.50;;;;;;1926028;73;21065;-84
2022/11/14 05:12:41;;;;;;;5.85;3.47;;;31.00;79.60;;;;;;1919002;73;21127;-83
2022/11/14 05:15:15;;;;;;;4.78;2.83;;;31.10;78.80;;;;;;1919449;73;21083;-79
2022/11/14 05:17:48;;;;;;;7.50;3.15;;;31.10;78.60;;;;;;1915127;73;21590;-82
2022/11/14 05:20:19;;;;;;;5.55;2.90;;;31.00;78.90;;;;;;1913986;74;21224;-80
2022/11/14 05:22:55;;;;;;;4.92;2.92;;;31.00;79.30;;;;;;1904316;74;21138;-80
2022/11/14 05:25:26;;;;;;;6.10;3.10;;;31.00;79.20;;;;;;1905565;73;21124;-83
2022/11/14 05:27:57;;;;;;;4.30;2.95;;;31.00;79.20;;;;;;1932712;72;21262;-81
2022/11/14 05:30:30;;;;;;;7.15;3.10;;;31.10;79.10;;;;;;1888451;75;21130;-83
2022/11/14 05:33:03;;;;;;;5.47;2.80;;;31.20;79.00;;;;;;1923423;73;21112;-80
2022/11/14 05:35:34;;;;;;;6.08;2.65;;;31.30;78.60;;;;;;1933287;73;21749;-82
2022/11/14 05:38:05;;;;;;;6.65;3.35;;;31.30;77.50;;;;;;1913186;73;21787;-81
2022/11/14 05:40:38;;;;;;;3.33;2.40;;;31.40;77.60;;;;;;1916140;73;21087;-83
2022/11/14 05:43:09;;;;;;;4.70;2.87;;;31.40;77.00;;;;;;1911185;73;21103;-81
2022/11/14 05:45:40;;;;;;;6.30;3.02;;;31.40;77.60;;;;;;1920766;73;21060;-80
2022/11/14 05:48:11;;;;;;;5.75;2.85;;;31.30;77.80;;;;;;1919281;73;21142;-82
2022/11/14 05:50:42;;;;;;;5.75;2.60;;;31.30;77.30;;;;;;1928886;73;21182;-82
2022/11/14 05:53:14;;;;;;;4.75;2.72;;;31.30;77.40;;;;;;1910073;73;21192;-77
2022/11/14 05:55:46;;;;;;;5.35;2.08;;;31.20;77.20;;;;;;1927763;72;21108;-80
2022/11/14 05:58:17;;;;;;;5.42;2.72;;;31.30;77.50;;;;;;1932506;73;21677;-80
2022/11/14 06:00:49;;;;;;;4.10;2.60;;;31.30;77.00;;;;;;1902137;74;21126;-78
2022/11/14 06:03:22;;;;;;;4.12;2.55;;;31.40;76.20;;;;;;1898260;75;21118;-79
2022/11/14 06:05:52;;;;;;;4.40;2.55;;;;;;;;;;1973682;72;21076;-78
2022/11/14 06:08:31;;;;;;;4.78;2.75;;;31.70;75.00;;;;;;1957499;72;21036;-78
2022/11/14 06:11:07;;;;;;;4.12;2.47;;;31.90;75.70;;;;;;1951868;73;21585;-78
2022/11/14 06:13:38;;;;;;;4.47;2.12;;;32.00;75.70;;;;;;1937152;72;21095;-78
2022/11/14 06:16:14;;;;;;;4.30;2.20;;;32.10;74.40;;;;;;1935217;72;21079;-78
2022/11/14 06:18:46;;;;;;;4.72;2.50;;;32.20;74.10;;;;;;1906300;74;21111;-78
2022/11/14 06:21:18;;;;;;;5.83;3.20;;;32.10;74.40;;;;;;1921766;74;21132;-78
2022/11/14 06:23:50;;;;;;;4.90;2.50;;;32.00;75.00;;;;;;1899240;74;21126;-78
2022/11/14 06:26:29;;;;;;;4.67;2.17;;;32.00;75.10;;;;;;1924823;72;21112;-78
2022/11/14 06:28:59;;;;;;;4.72;2.25;;;32.00;75.10;;;;;;1915223;74;21153;-79
2022/11/14 06:31:30;;;;;;;5.35;2.42;;;32.10;75.00;;;;;;1908121;74;21189;-80
2022/11/14 06:34:01;;;;;;;4.00;2.20;;;32.20;75.10;;;;;;1926277;73;21072;-74
2022/11/14 06:36:33;;;;;;;5.67;2.33;;;32.20;75.00;;;;;;1909352;74;21203;-83
2022/11/14 06:39:04;;;;;;;6.40;2.10;;;32.30;74.30;;;;;;1933867;73;21161;-83
2022/11/14 06:41:35;;;;;;;4.45;2.27;;;32.30;74.50;;;;;;1931521;73;21088;-80
2022/11/14 06:44:08;;;;;;;3.45;2.37;;;32.20;74.70;;;;;;1941970;73;21111;-81
2022/11/14 06:46:39;;;;;;;5.60;2.33;;;32.20;74.90;;;;;;1931912;73;21172;-81
2022/11/14 06:49:10;;;;;;;3.47;1.87;;;32.20;74.80;;;;;;1957098;73;21080;-82
2022/11/14 06:51:41;;;;;;;6.22;2.52;;;32.10;75.10;;;;;;1952349;72;21107;-82
2022/11/14 06:54:13;;;;;;;4.58;2.55;;;32.00;74.90;;;;;;1956270;72;21134;-79
2022/11/14 06:56:44;;;;;;;3.33;2.00;;;31.90;74.90;;;;;;1949601;73;21133;-81
2022/11/14 06:59:15;;;;;;;4.67;2.10;;;31.80;75.50;;;;;;1953394;73;21127;-82
2022/11/14 07:01:46;;;;;;;4.33;2.30;;;31.80;75.90;;;;;;1950253;73;21110;-80
2022/11/14 07:04:17;;;;;;;3.42;2.22;;;31.80;76.00;;;;;;1914622;74;21250;-82
2022/11/14 07:06:49;;;;;;;4.42;2.33;;;31.80;75.50;;;;;;1882530;73;21044;-79
2022/11/14 07:09:21;;;;;;;4.47;2.58;;;31.90;75.60;;;;;;1881929;74;22302;-84
2022/11/14 07:11:52;;;;;;;5.50;2.75;;;31.90;75.50;;;;;;1904125;74;21569;-81
2022/11/14 07:14:24;;;;;;;4.10;2.00;;;31.90;75.80;;;;;;1877098;75;21138;-83
2022/11/14 07:16:55;;;;;;;5.00;2.70;;;31.80;75.80;;;;;;1887895;74;21153;-82
2022/11/14 07:19:27;;;;;;;3.95;2.15;;;31.80;75.90;;;;;;1904057;74;21044;-80
2022/11/14 07:21:58;;;;;;;3.72;1.92;;;31.70;76.10;;;;;;1954363;72;21147;-81
2022/11/14 07:24:29;;;;;;;4.28;2.65;;;31.60;76.00;;;;;;1962657;72;21125;-81
2022/11/14 07:27:01;;;;;;;4.17;2.40;;;31.60;76.40;;;;;;1927964;72;21138;-80
2022/11/14 07:29:32;;;;;;;4.45;2.25;;;31.60;76.50;;;;;;1902371;73;21228;-80
2022/11/14 07:32:05;;;;;;;3.52;2.08;;;31.50;76.60;;;;;;1904037;74;21129;-83
2022/11/14 07:34:36;;;;;;;7.47;2.33;;;31.40;76.70;;;;;;1852729;73;21119;-80
2022/11/14 07:37:08;;;;;;;4.42;2.58;;;31.40;77.00;;;;;;1890898;74;21186;-80
2022/11/14 07:39:39;;;;;;;5.67;2.45;;;31.40;77.20;;;;;;1966480;71;21163;-77
2022/11/14 07:42:13;;;;;;;3.98;1.95;;;31.60;77.10;;;;;;1957195;71;21216;-80
2022/11/14 07:44:44;;;;;;;5.80;2.33;;;31.60;77.70;;;;;;1961365;72;21148;-80
2022/11/14 07:47:16;;;;;;;4.17;2.35;;;31.70;77.40;;;;;;1961230;72;21506;-82
2022/11/14 07:49:47;;;;;;;5.08;2.47;;;31.80;77.30;;;;;;1975075;71;21173;-82
2022/11/14 07:52:18;;;;;;;4.30;2.42;;;31.80;77.30;;;;;;1963017;71;21170;-85
2022/11/14 07:54:49;;;;;;;4.50;2.20;;;31.80;77.30;;;;;;1961974;72;21603;-81
2022/11/14 07:57:20;;;;;;;5.25;2.47;;;31.70;77.80;;;;;;1966196;71;21109;-83
2022/11/14 07:59:53;;;;;;;41.88;4.08;;;31.60;79.40;;;;;;1965036;71;21166;-79
2022/11/14 08:02:24;;;;;;;27.67;5.45;;;31.40;80.20;;;;;;1973299;71;21656;-81
2022/11/14 08:04:56;;;;;;;15.88;3.75;;;31.20;83.60;;;;;;1962842;71;21887;-81
2022/11/14 08:07:27;;;;;;;15.25;3.55;;;30.90;87.10;;;;;;1971002;72;21144;-81
2022/11/14 08:09:58;;;;;;;6.20;2.72;;;30.40;89.40;;;;;;1958826;72;21242;-77
2022/11/14 08:12:30;;;;;;;6.28;2.02;;;30.00;90.10;;;;;;1963415;72;21124;-77
2022/11/14 08:15:01;;;;;;;9.23;2.65;;;29.80;91.10;;;;;;1974897;72;21590;-81
2022/11/14 08:17:32;;;;;;;8.23;3.22;;;29.50;91.80;;;;;;1918578;73;21141;-82
2022/11/14 08:20:05;;;;;;;5.67;2.90;;;29.40;91.40;;;;;;1867773;75;21490;-83
2022/11/14 08:22:36;;;;;;;6.22;2.40;;;29.20;92.40;;;;;;1928607;73;21071;-81
2022/11/14 08:25:08;;;;;;;7.95;2.40;;;29.10;91.70;;;;;;1972171;72;21141;-77
2022/11/14 08:27:39;;;;;;;7.53;2.30;;;29.00;92.30;;;;;;1968703;72;21537;-77
2022/11/14 08:30:12;;;;;;;6.83;2.47;;;28.80;92.40;;;;;;1961148;72;21175;-81
2022/11/14 08:32:45;;;;;;;7.03;2.17;;;28.70;93.20;;;;;;2000368;70;21168;-81
2022/11/14 08:35:15;;;;;;;7.03;2.02;;;28.60;94.00;;;;;;2009182;71;21648;-80
2022/11/14 08:37:47;;;;;;;7.72;2.47;;;28.60;93.90;;;;;;1969326;72;21154;-79
2022/11/14 08:40:24;;;;;;;6.50;2.72;;;28.60;93.80;;;;;;2007254;70;21076;-85
2022/11/14 08:43:01;;;;;;;7.95;3.00;;;28.70;94.30;;;;;;1992354;70;21062;-83
2022/11/14 08:45:32;;;;;;;7.50;2.72;;;28.80;94.50;;;;;;2012553;71;21108;-81
2022/11/14 08:48:04;;;;;;;6.72;2.60;;;28.80;94.20;;;;;;1960973;72;21143;-82
2022/11/14 08:50:35;;;;;;;6.45;2.70;;;29.00;94.10;;;;;;1956284;72;21214;-81
2022/11/14 08:53:07;;;;;;;6.25;2.27;;;29.10;93.80;;;;;;1998250;70;21068;-83
2022/11/14 08:55:39;;;;;;;5.37;2.85;;;29.20;93.10;;;;;;1983647;71;21202;-80
2022/11/14 08:58:10;;;;;;;6.42;2.75;;;29.30;92.90;;;;;;1988609;70;21461;-81
2022/11/14 09:00:42;;;;;;;5.80;2.45;;;29.50;92.60;;;;;;2001059;71;21169;-82
2022/11/14 09:03:14;;;;;;;5.50;2.95;;;29.50;92.10;;;;;;1994013;70;21116;-79
2022/11/14 09:05:48;;;;;;;4.05;2.65;;;29.70;91.70;;;;;;1957690;72;21104;-78
2022/11/14 09:08:19;;;;;;;6.20;2.50;;;29.70;91.70;;;;;;1983804;70;21149;-80
2022/11/14 09:10:51;;;;;;;6.33;2.90;;;29.80;91.60;;;;;;1969911;72;21059;-82
2022/11/14 09:13:23;;;;;;;5.28;2.83;;;29.90;91.50;;;;;;1962006;72;21168;-81
2022/11/14 09:15:54;;;;;;;6.05;2.98;;;30.00;91.50;;;;;;1995630;70;21109;-79
2022/11/14 09:18:25;;;;;;;7.08;3.05;;;30.00;90.90;;;;;;1988941;70;21119;-80
2022/11/14 09:21:04;;;;;;;4.85;2.75;;;30.00;90.90;;;;;;1932793;73;21612;-77
2022/11/14 09:23:36;;;;;;;7.80;3.35;;;30.00;90.90;;;;;;1986694;70;21133;-79
2022/11/14 09:26:08;;;;;;;10.08;3.95;;;30.10;90.70;;;;;;1927462;74;21156;-79
2022/11/14 09:28:45;;;;;;;9.90;3.85;;;30.10;90.80;;;;;;1991854;70;21065;-76
2022/11/14 09:31:16;;;;;;;10.35;4.65;;;30.10;90.90;;;;;;1965414;71;21601;-79
2022/11/14 09:33:47;;;;;;;8.73;3.75;;;30.10;90.90;;;;;;1965289;72;21124;-79
2022/11/14 09:36:19;;;;;;;5.47;3.30;;;30.10;90.70;;;;;;1958587;72;21404;-77
2022/11/14 09:38:52;;;;;;;7.08;3.58;;;30.10;90.60;;;;;;1957756;72;21144;-78
2022/11/14 09:41:35;;;;;;;11.25;3.58;;;30.10;90.10;;;;;;1969915;71;21116;-80
2022/11/14 09:44:14;;;;;;;8.00;3.45;;;30.10;90.80;;;;;;1961775;71;21160;-74
2022/11/14 09:46:55;;;;;;;12.95;4.00;;;30.00;91.40;;;;;;1953065;72;21250;-77
2022/11/14 09:49:29;;;;;;;15.00;4.20;;;30.00;91.40;;;;;;1956710;71;21161;-75
2022/11/14 09:52:05;;;;;;;11.30;3.58;;;29.80;91.80;;;;;;1960660;71;21123;-80
2022/11/14 09:54:42;;;;;;;8.83;3.47;;;29.70;92.20;;;;;;1958448;71;21187;-79
2022/11/14 09:57:22;;;;;;;9.75;4.30;;;29.60;92.10;;;;;;1957985;71;21161;-76
2022/11/14 10:00:18;;;;;;;12.55;4.03;;;29.60;92.20;;;;;;1962008;71;21630;-80
2022/11/14 10:03:21;;;;;;;13.80;4.28;;;29.50;92.20;;;;;;1956341;73;21177;-80
2022/11/14 10:06:08;;;;;;;12.98;4.15;;;29.50;92.10;;;;;;1964556;72;21019;-77
2022/11/14 10:09:23;;;;;;;10.08;3.98;;;29.50;92.30;;;;;;1945964;72;21150;-79
2022/11/14 10:12:15;;;;;;;10.45;3.80;;;29.40;92.20;;;;;;1930998;73;21039;-79
2022/11/14 10:15:22;;;;;;;12.20;4.22;;;29.40;92.10;;;;;;1956341;72;21584;-78
2022/11/14 10:18:16;;;;;;;12.88;4.50;;;29.40;92.10;;;;;;1950071;72;21249;-77
2022/11/14 10:20:54;;;;;;;15.55;4.72;;;29.40;92.20;;;;;;1956076;71;21127;-79
2022/11/14 10:23:36;;;;;;;15.35;4.70;;;29.40;92.20;;;;;;1956455;72;21169;-78
2022/11/14 10:26:32;;;;;;;11.85;4.17;;;29.40;92.20;;;;;;1910320;74;21101;-79
2022/11/14 10:29:28;;;;;;;13.93;4.50;;;29.30;92.10;;;;;;1963696;73;21218;-80
2022/11/14 10:32:02;;;;;;;15.70;5.00;;;29.30;92.20;;;;;;1978119;71;21703;-80
2022/11/14 10:34:38;;;;;;;17.82;4.95;;;29.30;92.50;;;;;;1926074;71;21060;-77
2022/11/14 10:37:31;;;;;;;9.18;4.70;;;29.30;92.40;;;;;;1958861;71;21645;-77
2022/11/14 10:40:33;;;;;;;15.43;5.25;;;29.20;92.30;;;;;;1993066;71;21120;-80
2022/11/14 10:43:19;;;;;;;14.83;5.12;;;29.20;92.30;;;;;;1976188;71;21106;-77
2022/11/14 10:45:59;;;;;;;13.08;6.33;;;29.20;92.30;;;;;;1987087;71;21591;-79
2022/11/14 10:48:42;;;;;;;12.07;5.37;;;29.20;92.40;;;;;;1970960;71;21154;-80
2022/11/14 10:51:37;;;;;;;8.00;5.03;;;29.20;92.40;;;;;;1973723;71;21166;-79
2022/11/14 10:54:16;;;;;;;18.57;5.10;;;29.20;92.00;;;;;;1985577;71;21635;-78
2022/11/14 10:56:52;;;;;;;7.28;4.55;;;29.20;92.10;;;;;;1955133;72;21094;-77
2022/11/14 10:59:23;;;;;;;9.10;5.33;;;29.10;91.90;;;;;;1982789;72;21100;-78
2022/11/14 11:01:57;;;;;;;10.78;5.80;;;29.10;91.80;;;;;;1973518;72;21112;-79
2022/11/14 11:04:36;;;;;;;8.40;5.00;;;29.00;91.70;;;;;;1973672;71;21165;-80
2022/11/14 11:13:05;;;;;;;8.23;4.28;;;28.90;91.60;;;;;;1978261;71;21249;-81
2022/11/14 11:15:43;;;;;;;7.05;3.83;;;28.90;91.50;;;;;;1972967;72;21162;-78
2022/11/14 11:18:32;;;;;;;7.50;3.77;;;28.80;91.40;;;;;;1973462;72;21190;-81
2022/11/14 11:21:11;;;;;;;7.15;4.62;;;28.80;91.40;;;;;;1970981;71;21148;-80
2022/11/14 11:23:54;;;;;;;8.80;4.65;;;28.70;91.10;;;;;;1974010;72;21119;-78
2022/11/14 11:26:33;;;;;;;7.45;4.47;;;28.70;91.40;;;;;;1945950;72;21128;-78
2022/11/14 11:29:13;;;;;;;9.73;4.42;;;28.60;91.30;;;;;;1982558;72;21112;-79
2022/11/14 11:32:02;;;;;;;9.60;4.90;;;28.60;91.20;;;;;;1997872;71;21587;-79
2022/11/14 11:34:36;;;;;;;10.10;4.62;;;28.60;91.20;;;;;;1967861;73;21109;-76
2022/11/14 11:37:29;;;;;;;7.53;4.42;;;28.50;91.00;;;;;;1968885;71;21136;-80
2022/11/14 11:40:06;;;;;;;9.70;5.10;;;28.50;91.00;;;;;;1953740;71;21206;-79
2022/11/14 11:42:40;;;;;;;8.80;4.45;;;28.40;91.00;;;;;;1955627;71;21671;-79
2022/11/14 11:45:19;;;;;;;11.12;5.45;;;28.40;90.70;;;;;;1968131;71;21105;-78
2022/11/14 11:48:22;;;;;;;8.83;4.62;;;28.40;90.90;;;;;;1933503;71;21131;-79
2022/11/14 11:51:00;;;;;;;8.85;4.03;;;28.30;90.80;;;;;;1894301;74;21085;-77
2022/11/14 11:53:45;;;;;;;8.38;4.17;;;28.30;90.80;;;;;;1873522;75;21547;-81
2022/11/14 11:56:26;;;;;;;6.78;3.80;;;28.30;90.80;;;;;;1855386;75;21168;-80
2022/11/14 11:59:12;;;;;;;6.60;3.52;;;28.20;90.90;;;;;;1899467;72;21941;31
2022/11/14 12:07:05;;;;;;;9.08;4.70;;;28.20;91.10;;;;;;1914653;72;21195;-78
2022/11/14 12:09:44;;;;;;;8.35;4.17;;;28.10;90.90;;;;;;1917779;71;21192;-77
2022/11/14 12:12:30;;;;;;;8.88;4.53;;;28.10;90.90;;;;;;1927543;70;21125;-79
2022/11/14 12:14:59;;;;;;;8.98;4.28;;;28.10;91.00;;;;;;1939222;71;21496;-78
2022/11/14 12:17:44;;;;;;;8.60;4.45;;;28.10;91.20;;;;;;1979291;72;21475;-79
2022/11/14 12:20:32;;;;;;;8.63;4.22;;;28.10;91.10;;;;;;1935572;72;21171;-79
2022/11/14 12:23:25;;;;;;;8.68;4.00;;;28.10;91.90;;;;;;1962117;72;21158;-79
2022/11/14 12:26:04;;;;;;;8.55;5.00;;;28.10;91.70;;;;;;1977598;71;21247;-80
2022/11/14 12:28:42;;;;;;;7.95;4.75;;;28.10;91.90;;;;;;1952416;71;21139;-79
2022/11/14 12:31:15;;;;;;;11.00;4.55;;;28.00;91.80;;;;;;1933788;73;21115;-78
2022/11/14 12:36:31;;;;;;;9.40;4.40;;;28.10;92.20;;;;;;1959634;71;21064;-80
2022/11/14 12:39:03;;;;;;;8.10;4.15;;;28.00;91.50;;;;;;1940042;73;21568;-77
2022/11/14 12:41:37;;;;;;;9.68;4.60;;;28.00;91.60;;;;;;1947804;72;21135;-79
2022/11/14 12:44:28;;;;;;;9.23;4.05;;;28.00;91.80;;;;;;1949448;72;21171;-78
2022/11/14 12:47:24;;;;;;;8.45;4.08;;;28.00;91.60;;;;;;1956563;71;21120;-78
2022/11/14 12:50:06;;;;;;;12.98;4.50;;;28.00;91.60;;;;;;1873836;75;21130;-79
2022/11/14 12:52:47;;;;;;;15.45;4.42;;;28.00;91.50;;;;;;1848473;77;21161;-79
2022/11/14 12:55:31;;;;;;;7.33;4.03;;;28.00;91.50;;;;;;1847974;75;21135;-79
2022/11/14 12:58:11;;;;;;;10.23;4.42;;;28.10;91.60;;;;;;1872889;76;21150;-81
2022/11/14 13:00:50;;;;;;;9.40;4.03;;;28.10;91.40;;;;;;1908545;75;21181;-81
2022/11/14 13:03:24;;;;;;;6.12;4.10;;;28.10;91.30;;;;;;1848541;76;21130;-79
2022/11/14 13:06:06;;;;;;;7.40;4.25;;;28.10;91.50;;;;;;1851147;76;21594;-80
2022/11/14 13:08:48;;;;;;;9.58;4.75;;;28.10;91.50;;;;;;1856918;76;21169;-77
2022/11/14 13:23:30;;;;;;;11.33;4.97;;;27.90;92.00;;;;;;1905370;73;21083;-80
2022/11/14 13:31:50;;;;;;;12.18;4.95;;;27.80;91.90;;;;;;1914609;73;21210;-78
2022/11/14 13:34:38;;;;;;;10.38;4.83;;;27.80;92.20;;;;;;1910746;74;21175;-80
2022/11/14 13:37:24;;;;;;;9.55;4.97;;;27.80;92.00;;;;;;1831172;76;21212;-79
2022/11/14 13:40:03;;;;;;;8.53;4.90;;;27.80;92.20;;;;;;1875009;75;21218;-77
2022/11/14 13:43:29;;;;;;;7.85;4.58;;;27.70;92.00;;;;;;1895191;72;21632;-78
2022/11/14 13:46:53;;;;;;;9.50;4.47;;;27.70;92.20;;;;;;1784201;76;21150;-77
2022/11/14 13:49:51;;;;;;;8.80;4.50;;;27.70;92.20;;;;;;1848858;76;21131;-76
2022/11/14 13:52:44;;;;;;;12.73;5.22;;;27.70;92.10;;;;;;1829563;77;21100;-77
2022/11/14 13:55:24;;;;;;;14.93;5.50;;;27.70;92.20;;;;;;1832203;77;21127;-77
2022/11/14 13:57:57;;;;;;;10.00;4.45;;;27.70;92.30;;;;;;1931955;74;21588;-76
2022/11/14 14:00:51;;;;;;;9.65;5.35;;;27.70;92.80;;;;;;1905562;73;21219;-76